createdAt,value
2019-01-11T00:00:46.723Z,7.35
2019-01-11T00:03:16.228Z,6.95
2019-01-11T00:05:45.370Z,8.08
2019-01-11T00:08:14.582Z,8.60
2019-01-11T00:10:43.810Z,7.60
2019-01-11T00:13:12.713Z,8.68
2019-01-11T00:15:41.579Z,8.03
2019-01-11T00:18:10.441Z,7.10
2019-01-11T00:20:39.394Z,7.10
2019-01-11T00:23:08.372Z,7.25
2019-01-11T00:25:37.513Z,7.25
2019-01-11T00:28:06.531Z,7.28
2019-01-11T00:30:35.366Z,7.75
2019-01-11T00:33:04.814Z,7.67
2019-01-11T00:35:33.791Z,7.67
2019-01-11T00:38:02.904Z,6.67
2019-01-11T00:40:31.723Z,8.55
2019-01-11T00:43:00.506Z,7.95
2019-01-11T00:45:29.447Z,7.85
2019-01-11T00:47:58.398Z,8.95
2019-01-11T00:50:27.299Z,7.75
2019-01-11T00:52:57.870Z,7.75
2019-01-11T00:55:26.886Z,8.08
2019-01-11T00:57:55.735Z,8.18
2019-01-11T01:00:24.796Z,8.50
2019-01-11T01:02:53.873Z,8.83
2019-01-11T01:05:22.938Z,7.17
2019-01-11T01:07:52.019Z,7.35
2019-01-11T01:10:22.188Z,7.70
2019-01-11T01:12:51.350Z,7.83
2019-01-11T01:15:20.942Z,7.60
2019-01-11T01:17:49.995Z,7.65
2019-01-11T01:20:19.042Z,6.75
2019-01-11T01:22:48.139Z,7.12
2019-01-11T01:25:17.282Z,7.40
2019-01-11T01:27:46.572Z,6.80
2019-01-11T01:30:17.228Z,7.40
2019-01-11T01:32:46.093Z,7.42
2019-01-11T01:35:15.327Z,8.33
2019-01-11T01:37:44.271Z,8.43
2019-01-11T01:40:14.267Z,7.40
2019-01-11T01:42:43.238Z,7.65
2019-01-11T01:45:13.609Z,8.58
2019-01-11T01:47:42.657Z,7.40
2019-01-11T01:50:11.758Z,6.28
2019-01-11T01:52:40.975Z,7.83
2019-01-11T01:55:10.716Z,7.12
2019-01-11T01:57:39.822Z,7.35
2019-01-11T02:00:12.141Z,8.08
2019-01-11T02:02:41.188Z,7.92
2019-01-11T02:05:10.925Z,7.35
2019-01-11T02:07:40.289Z,8.05
2019-01-11T02:10:10.918Z,7.55
2019-01-11T02:12:40.175Z,8.48
2019-01-11T02:15:10.287Z,8.30
2019-01-11T02:17:39.323Z,7.10
2019-01-11T02:20:12.352Z,7.53
2019-01-11T02:22:43.035Z,7.60
2019-01-11T02:25:12.005Z,6.90
2019-01-11T02:27:41.287Z,5.58
2019-01-11T02:30:16.106Z,7.12
2019-01-11T02:32:52.066Z,8.08
2019-01-11T02:35:16.010Z,7.35
2019-01-11T02:37:44.957Z,7.80
2019-01-11T02:40:14.164Z,8.60
2019-01-11T02:42:43.084Z,7.92
2019-01-11T02:45:16.164Z,6.83
2019-01-11T02:47:45.575Z,8.68
2019-01-11T02:50:14.722Z,7.50
2019-01-11T02:52:43.823Z,7.08
2019-01-11T02:55:12.995Z,8.00
2019-01-11T02:57:42.042Z,8.53
2019-01-11T03:00:13.937Z,8.90
2019-01-11T03:02:42.962Z,8.13
2019-01-11T03:05:12.268Z,7.30
2019-01-11T03:07:41.338Z,7.40
2019-01-11T03:10:19.281Z,8.08
2019-01-11T03:12:48.385Z,7.92
2019-01-11T03:15:18.235Z,7.55
2019-01-11T03:17:47.373Z,9.15
2019-01-11T03:20:16.754Z,8.18
2019-01-11T03:22:45.676Z,8.93
2019-01-11T03:25:14.990Z,8.28
2019-01-11T03:27:43.718Z,8.63
2019-01-11T03:30:15.234Z,9.78
2019-01-11T03:32:44.190Z,8.35
2019-01-11T03:35:17.108Z,7.20
2019-01-11T03:37:49.985Z,6.90
2019-01-11T03:40:23.537Z,7.42
2019-01-11T03:42:52.428Z,8.68
2019-01-11T03:45:23.886Z,9.25
2019-01-11T03:47:52.648Z,9.68
2019-01-11T03:50:21.911Z,8.30
2019-01-11T03:52:50.842Z,8.68
2019-01-11T03:55:20.059Z,10.30
2019-01-11T03:57:49.522Z,7.58
2019-01-11T04:00:23.322Z,9.35
2019-01-11T04:02:52.360Z,8.23
2019-01-11T04:05:21.634Z,8.10
2019-01-11T04:07:50.855Z,8.88
2019-01-11T04:10:21.483Z,8.60
2019-01-11T04:12:50.320Z,8.80
2019-01-11T04:15:19.996Z,8.90
2019-01-11T04:18:25.054Z,7.92
2019-01-11T04:20:54.334Z,8.50
2019-01-11T04:23:23.645Z,8.25
2019-01-11T04:25:52.387Z,7.85
2019-01-11T04:28:21.423Z,9.30
2019-01-11T04:30:50.727Z,8.00
2019-01-11T04:33:19.947Z,7.78
2019-01-11T04:35:48.936Z,6.72
2019-01-11T04:38:17.975Z,7.97
2019-01-11T04:40:46.775Z,8.35
2019-01-11T04:43:16.066Z,9.08
2019-01-11T04:45:45.095Z,8.45
2019-01-11T04:48:14.343Z,5.03
2019-01-11T04:50:43.430Z,7.65
2019-01-11T04:53:12.424Z,7.62
2019-01-11T04:55:41.646Z,5.65
2019-01-11T04:58:10.739Z,4.12
2019-01-11T05:00:39.765Z,9.80
2019-01-11T05:03:08.841Z,6.90
2019-01-11T05:05:37.838Z,9.43
2019-01-11T05:08:06.797Z,8.13
2019-01-11T05:10:35.799Z,8.95
2019-01-11T05:13:25.528Z,4.87
2019-01-11T05:15:54.594Z,7.30
2019-01-11T05:18:23.345Z,9.23
2019-01-11T05:20:52.463Z,8.65
2019-01-11T05:23:21.271Z,8.03
2019-01-11T05:25:52.649Z,8.05
2019-01-11T05:28:21.657Z,9.63
2019-01-11T05:30:50.426Z,9.25
2019-01-11T05:33:19.430Z,6.90
2019-01-11T05:35:48.474Z,11.40
2019-01-11T05:38:17.560Z,8.48
2019-01-11T05:40:46.394Z,10.68
2019-01-11T05:43:15.442Z,8.00
2019-01-11T05:45:44.739Z,10.70
2019-01-11T05:48:16.838Z,12.60
2019-01-11T05:50:45.911Z,14.03
2019-01-11T05:53:14.940Z,13.43
2019-01-11T05:55:50.909Z,8.08
2019-01-11T05:58:36.822Z,12.07
2019-01-11T06:01:05.867Z,13.85
2019-01-11T06:03:35.162Z,12.15
2019-01-11T06:06:04.659Z,13.25
2019-01-11T06:08:34.258Z,15.30
2019-01-11T06:11:03.472Z,14.95
2019-01-11T06:13:32.593Z,12.10
2019-01-11T06:16:01.428Z,12.95
2019-01-11T06:18:30.260Z,12.35
2019-01-11T06:20:59.433Z,14.93
2019-01-11T06:23:28.748Z,11.55
2019-01-11T06:25:57.771Z,15.70
2019-01-11T06:28:26.759Z,14.03
2019-01-11T06:30:55.953Z,14.47
2019-01-11T06:33:25.041Z,16.75
2019-01-11T06:35:53.810Z,15.28
2019-01-11T06:38:22.847Z,14.80
2019-01-11T06:40:51.677Z,15.83
2019-01-11T06:43:20.471Z,11.35
2019-01-11T06:45:49.303Z,15.15
2019-01-11T06:48:40.039Z,14.10
2019-01-11T06:51:09.438Z,15.95
2019-01-11T06:53:38.280Z,17.10
2019-01-11T06:56:07.042Z,15.95
2019-01-11T06:58:35.776Z,17.30
2019-01-11T07:01:04.714Z,18.25
2019-01-11T07:03:33.556Z,17.75
2019-01-11T07:06:02.537Z,19.00
2019-01-11T07:08:31.726Z,18.95
2019-01-11T07:11:00.694Z,16.67
2019-01-11T07:13:30.010Z,20.85
2019-01-11T07:15:59.026Z,16.80
2019-01-11T07:18:28.004Z,21.12
2019-01-11T07:20:57.059Z,16.93
2019-01-11T07:23:25.815Z,19.95
2019-01-11T07:25:54.639Z,20.55
2019-01-11T07:28:23.665Z,19.62
2019-01-11T07:31:20.968Z,20.97
2019-01-11T07:33:50.082Z,17.85
2019-01-11T07:36:28.867Z,16.10
2019-01-11T07:38:58.125Z,21.07
2019-01-11T07:41:27.250Z,18.32
2019-01-11T07:43:56.351Z,20.62
2019-01-11T07:46:26.530Z,21.02
2019-01-11T07:48:55.426Z,20.97
2019-01-11T07:51:24.372Z,23.50
2019-01-11T07:53:53.416Z,23.05
2019-01-11T07:56:22.210Z,24.07
2019-01-11T07:58:51.203Z,23.50
2019-01-11T08:01:20.106Z,23.67
2019-01-11T08:03:49.173Z,24.02
2019-01-11T08:06:18.315Z,20.30
2019-01-11T08:08:47.334Z,24.00
2019-01-11T08:11:16.129Z,25.43
2019-01-11T08:13:44.880Z,25.17
2019-01-11T08:16:14.540Z,25.50
2019-01-11T08:18:43.703Z,25.97
2019-01-11T08:21:12.741Z,28.12
2019-01-11T08:23:41.880Z,27.40
2019-01-11T08:26:10.934Z,28.00
2019-01-11T08:28:39.905Z,31.00
2019-01-11T08:31:08.915Z,28.20
2019-01-11T08:33:37.851Z,23.22
2019-01-11T08:36:06.701Z,25.80
2019-01-11T08:38:35.434Z,23.62
2019-01-11T08:41:04.640Z,27.93
2019-01-11T08:43:33.694Z,27.45
2019-01-11T08:46:02.708Z,24.52
2019-01-11T08:48:31.724Z,21.68
2019-01-11T08:51:02.796Z,25.12
2019-01-11T08:53:32.050Z,17.35
2019-01-11T08:56:01.150Z,19.50
2019-01-11T08:58:30.036Z,25.02
2019-01-11T09:00:59.148Z,17.90
2019-01-11T09:03:28.454Z,27.75
2019-01-11T09:05:57.469Z,16.62
2019-01-11T09:08:26.330Z,20.35
2019-01-11T09:10:55.414Z,18.27
2019-01-11T09:13:24.392Z,18.50
2019-01-11T09:15:53.708Z,18.92
2019-01-11T09:18:39.045Z,21.42
2019-01-11T09:21:09.477Z,29.15
2019-01-11T09:23:38.877Z,23.27
2019-01-11T09:26:08.062Z,27.20
2019-01-11T09:28:41.105Z,28.35
2019-01-11T09:31:11.166Z,26.75
2019-01-11T09:33:40.251Z,24.12
2019-01-11T09:36:09.348Z,27.05
2019-01-11T09:38:41.275Z,24.18
2019-01-11T09:41:10.416Z,28.07
2019-01-11T09:43:39.353Z,16.37
2019-01-11T09:46:08.385Z,23.80
2019-01-11T09:48:37.212Z,23.73
2019-01-11T09:51:06.280Z,18.45
2019-01-11T09:53:35.514Z,14.58
2019-01-11T09:56:04.729Z,28.05
2019-01-11T09:58:33.873Z,22.10
2019-01-11T10:01:02.771Z,26.40
2019-01-11T10:03:31.714Z,23.35
2019-01-11T10:06:00.555Z,25.60
2019-01-11T10:08:29.871Z,24.47
2019-01-11T10:10:58.996Z,22.17
2019-01-11T10:13:28.006Z,20.82
2019-01-11T10:15:58.599Z,22.30
2019-01-11T10:18:27.402Z,21.15
2019-01-11T10:20:56.257Z,17.85
2019-01-11T10:23:25.635Z,17.35
2019-01-11T10:25:54.551Z,15.90
2019-01-11T10:28:23.873Z,18.15
2019-01-11T10:30:52.762Z,20.50
2019-01-11T10:33:21.618Z,14.70
2019-01-11T10:35:50.762Z,25.95
2019-01-11T10:38:19.787Z,38.05
2019-01-11T10:40:48.902Z,22.37
2019-01-11T10:43:17.750Z,21.23
2019-01-11T10:45:46.472Z,43.02
2019-01-11T10:48:15.688Z,63.83
2019-01-11T10:50:44.586Z,22.05
2019-01-11T10:53:13.723Z,56.28
2019-01-11T10:55:43.274Z,20.32
2019-01-11T10:58:12.201Z,24.05
2019-01-11T11:00:41.197Z,27.37
2019-01-11T11:03:10.256Z,21.60
2019-01-11T11:05:39.285Z,23.85
2019-01-11T11:08:08.143Z,19.77
2019-01-11T11:10:37.069Z,12.50
2019-01-11T11:13:06.099Z,14.50
2019-01-11T11:15:35.254Z,13.85
2019-01-11T11:18:04.573Z,16.95
2019-01-11T11:20:33.891Z,14.80
2019-01-11T11:23:02.670Z,9.63
2019-01-11T11:25:31.485Z,10.90
2019-01-11T11:28:00.684Z,13.95
2019-01-11T11:30:30.182Z,18.15
2019-01-11T11:33:00.034Z,17.05
2019-01-11T11:35:29.748Z,16.23
2019-01-11T11:37:58.786Z,15.98
2019-01-11T11:40:33.211Z,18.07
2019-01-11T11:43:02.131Z,17.70
2019-01-11T11:45:31.592Z,21.25
2019-01-11T11:48:00.629Z,22.82
2019-01-11T11:50:29.552Z,23.27
2019-01-11T11:52:58.382Z,21.25
2019-01-11T11:55:27.485Z,21.07
2019-01-11T11:57:57.108Z,18.00
2019-01-11T12:00:27.145Z,22.10
2019-01-11T12:02:56.556Z,26.05
2019-01-11T12:05:25.568Z,25.37
2019-01-11T12:07:54.755Z,26.95
2019-01-11T12:10:23.855Z,20.45
2019-01-11T12:12:52.999Z,32.10
2019-01-11T12:15:21.985Z,31.35
2019-01-11T12:17:51.093Z,24.30
2019-01-11T12:20:25.872Z,34.30
2019-01-11T12:22:55.252Z,24.63
2019-01-11T12:25:24.459Z,27.75
2019-01-11T12:27:53.522Z,25.32
2019-01-11T12:30:22.427Z,25.35
2019-01-11T12:32:52.519Z,26.97
2019-01-11T12:35:21.481Z,28.20
2019-01-11T12:37:50.389Z,20.35
2019-01-11T12:40:19.449Z,20.90
2019-01-11T12:42:48.314Z,20.00
2019-01-11T12:45:17.455Z,26.90
2019-01-11T12:47:46.516Z,20.40
2019-01-11T12:50:21.195Z,19.80
2019-01-11T12:52:50.068Z,24.47
2019-01-11T12:55:19.206Z,19.50
2019-01-11T12:57:48.559Z,17.80
2019-01-11T13:00:18.199Z,18.20
2019-01-11T13:02:47.213Z,20.05
2019-01-11T13:05:18.322Z,16.30
2019-01-11T13:07:47.443Z,19.80
2019-01-11T13:10:17.443Z,17.82
2019-01-11T13:12:46.509Z,23.83
2019-01-11T13:15:25.054Z,15.20
2019-01-11T13:17:54.082Z,22.65
2019-01-11T13:20:23.448Z,30.00
2019-01-11T13:22:52.646Z,30.97
2019-01-11T13:25:24.842Z,23.90
2019-01-11T13:27:53.783Z,18.80
2019-01-11T13:30:22.520Z,19.90
2019-01-11T13:32:51.523Z,23.55
2019-01-11T13:35:20.624Z,26.37
2019-01-11T13:37:49.566Z,22.75
2019-01-11T13:40:23.309Z,26.17
2019-01-11T13:42:52.514Z,22.65
2019-01-11T13:45:22.488Z,16.50
2019-01-11T13:47:51.727Z,24.92
2019-01-11T13:50:49.463Z,21.07
2019-01-11T13:53:21.520Z,20.97
2019-01-11T13:55:50.802Z,19.67
2019-01-11T13:58:19.947Z,26.27
2019-01-11T14:00:48.990Z,16.25
2019-01-11T14:03:17.935Z,25.48
2019-01-11T14:05:48.477Z,21.48
2019-01-11T14:08:17.378Z,22.30
2019-01-11T14:10:46.195Z,18.82
2019-01-11T14:13:15.704Z,24.90
2019-01-11T14:15:44.445Z,14.53
2019-01-11T14:18:16.527Z,21.20
2019-01-11T14:20:45.964Z,20.55
2019-01-11T14:23:15.067Z,22.42
2019-01-11T14:25:43.958Z,24.37
2019-01-11T14:28:13.087Z,25.45
2019-01-11T14:30:42.343Z,26.93
2019-01-11T14:33:11.300Z,27.00
2019-01-11T14:35:40.398Z,24.77
2019-01-11T14:38:09.407Z,30.52
2019-01-11T14:40:38.418Z,20.37
2019-01-11T14:43:07.412Z,26.05
2019-01-11T14:45:39.333Z,24.60
2019-01-11T14:48:08.370Z,21.70
2019-01-11T14:50:37.433Z,18.07
2019-01-11T14:53:06.634Z,19.50
2019-01-11T14:55:35.648Z,19.30
2019-01-11T14:58:04.722Z,19.30
2019-01-11T15:00:33.801Z,25.02
2019-01-11T15:03:02.661Z,23.90
2019-01-11T15:05:31.898Z,25.05
2019-01-11T15:08:01.065Z,20.12
2019-01-11T15:10:29.943Z,25.60
2019-01-11T15:12:58.897Z,22.77
2019-01-11T15:15:27.735Z,20.30
2019-01-11T15:17:56.832Z,27.15
2019-01-11T15:20:25.647Z,26.52
2019-01-11T15:22:54.829Z,32.42
2019-01-11T15:25:23.614Z,26.73
2019-01-11T15:27:52.610Z,26.27
2019-01-11T15:30:21.711Z,18.95
2019-01-11T15:32:50.706Z,18.95
2019-01-11T15:35:19.757Z,23.30
2019-01-11T15:37:49.093Z,14.30
2019-01-11T15:40:28.674Z,28.73
2019-01-11T15:42:57.626Z,24.50
2019-01-11T15:45:26.446Z,22.42
2019-01-11T15:47:56.310Z,18.17
2019-01-11T15:51:00.800Z,15.90
2019-01-11T15:53:37.307Z,22.02
2019-01-11T15:56:09.297Z,27.25
2019-01-11T15:58:38.264Z,27.22
2019-01-11T16:01:07.564Z,27.25
2019-01-11T16:03:38.879Z,19.95
2019-01-11T16:06:25.102Z,18.90
2019-01-11T16:09:24.341Z,24.47
2019-01-11T16:12:01.974Z,23.25
2019-01-11T16:14:40.082Z,27.27
2019-01-11T16:17:12.163Z,26.23
2019-01-11T16:19:41.179Z,23.12
2019-01-11T16:22:10.195Z,28.85
2019-01-11T16:24:38.995Z,23.47
2019-01-11T16:27:08.299Z,34.00
2019-01-11T16:29:37.368Z,26.77
2019-01-11T16:32:06.470Z,28.10
2019-01-11T16:34:35.291Z,23.90
2019-01-11T16:37:04.785Z,21.85
2019-01-11T16:39:34.331Z,21.60
2019-01-11T16:42:03.244Z,18.85
2019-01-11T16:44:32.245Z,19.73
2019-01-11T16:47:01.109Z,25.72
2019-01-11T16:49:30.251Z,18.35
2019-01-11T16:51:59.313Z,21.60
2019-01-11T16:54:28.171Z,22.55
2019-01-11T16:56:57.435Z,22.27
2019-01-11T16:59:28.340Z,18.92
2019-01-11T17:01:57.337Z,18.67
2019-01-11T17:04:28.098Z,17.50
2019-01-11T17:06:57.068Z,21.42
2019-01-11T17:09:26.227Z,15.63
2019-01-11T17:11:55.245Z,19.85
2019-01-11T17:14:24.343Z,25.10
2019-01-11T17:16:53.180Z,18.17
2019-01-11T17:19:22.249Z,18.15
2019-01-11T17:21:51.194Z,24.02
2019-01-11T17:24:20.319Z,18.23
2019-01-11T17:26:49.414Z,18.98
2019-01-11T17:29:18.459Z,31.30
2019-01-11T17:31:47.589Z,29.42
2019-01-11T17:34:16.921Z,26.37
2019-01-11T17:36:45.938Z,29.20
2019-01-11T17:39:14.768Z,31.15
2019-01-11T17:41:43.669Z,27.37
2019-01-11T17:44:12.661Z,29.18
2019-01-11T17:46:41.896Z,29.30
2019-01-11T17:49:11.023Z,30.90
2019-01-11T17:51:40.002Z,23.07
2019-01-11T17:54:09.431Z,20.02
2019-01-11T17:56:38.632Z,21.23
2019-01-11T17:59:07.714Z,29.23
2019-01-11T18:01:36.825Z,23.07
2019-01-11T18:04:06.210Z,23.38
2019-01-11T18:06:35.267Z,24.65
2019-01-11T18:09:06.674Z,33.38
2019-01-11T18:11:35.837Z,23.45
2019-01-11T18:14:05.081Z,27.93
2019-01-11T18:16:33.954Z,27.32
2019-01-11T18:19:02.968Z,23.62
2019-01-11T18:21:32.057Z,15.75
2019-01-11T18:24:01.020Z,22.98
2019-01-11T18:26:30.072Z,30.77
2019-01-11T18:28:58.911Z,28.75
2019-01-11T18:31:28.181Z,20.60
2019-01-11T18:33:56.935Z,26.62
2019-01-11T18:36:25.873Z,17.82
2019-01-11T18:38:55.026Z,25.10
2019-01-11T18:41:24.096Z,25.88
2019-01-11T18:43:52.974Z,18.45
2019-01-11T18:46:22.058Z,21.48
2019-01-11T18:48:50.796Z,17.48
2019-01-11T18:51:19.939Z,28.17
2019-01-11T18:53:48.993Z,31.62
2019-01-11T18:56:18.017Z,27.05
2019-01-11T18:58:47.182Z,26.82
2019-01-11T19:01:16.228Z,27.45
2019-01-11T19:03:45.017Z,30.35
2019-01-11T19:06:14.091Z,18.87
2019-01-11T19:08:43.278Z,25.62
2019-01-11T19:11:12.635Z,17.55
2019-01-11T19:13:41.929Z,19.67
2019-01-11T19:16:11.190Z,25.95
2019-01-11T19:18:40.292Z,21.80
2019-01-11T19:21:11.459Z,22.75
2019-01-11T19:23:40.458Z,23.50
2019-01-11T19:26:09.538Z,22.87
2019-01-11T19:28:38.461Z,18.75
2019-01-11T19:31:07.250Z,24.43
2019-01-11T19:33:36.257Z,28.07
2019-01-11T19:36:05.179Z,23.50
2019-01-11T19:38:34.458Z,18.45
2019-01-11T19:41:03.327Z,24.80
2019-01-11T19:43:32.453Z,29.15
2019-01-11T19:46:01.341Z,27.15
2019-01-11T19:48:30.238Z,23.85
2019-01-11T19:50:59.372Z,27.20
2019-01-11T19:53:28.430Z,31.93
2019-01-11T19:55:58.887Z,29.70
2019-01-11T19:58:28.195Z,22.58
2019-01-11T20:00:57.053Z,20.12
2019-01-11T20:03:25.987Z,23.15
2019-01-11T20:05:55.177Z,22.13
2019-01-11T20:08:24.311Z,21.50
2019-01-11T20:10:53.544Z,25.37
2019-01-11T20:13:22.731Z,27.75
2019-01-11T20:15:51.995Z,27.85
2019-01-11T20:18:21.246Z,27.75
2019-01-11T20:20:50.291Z,19.23
2019-01-11T20:23:19.576Z,23.35
2019-01-11T20:25:48.617Z,16.80
2019-01-11T20:28:17.693Z,18.35
2019-01-11T20:30:46.439Z,25.92
2019-01-11T20:33:15.406Z,24.45
2019-01-11T20:35:44.817Z,23.20
2019-01-11T20:38:13.841Z,15.88
2019-01-11T20:40:42.911Z,26.50
2019-01-11T20:43:12.291Z,24.43
2019-01-11T20:45:41.414Z,24.72
2019-01-11T20:48:10.981Z,22.85
2019-01-11T20:50:42.183Z,21.45
2019-01-11T20:53:11.231Z,28.07
2019-01-11T20:55:40.259Z,24.57
2019-01-11T20:58:09.320Z,29.12
2019-01-11T21:00:38.803Z,26.77
2019-01-11T21:03:08.377Z,23.40
2019-01-11T21:05:37.605Z,16.50
2019-01-11T21:08:06.976Z,26.55
2019-01-11T21:10:35.986Z,27.80
2019-01-11T21:13:05.115Z,22.58
2019-01-11T21:15:34.301Z,27.62
2019-01-11T21:18:03.405Z,17.52
2019-01-11T21:20:32.381Z,27.48
2019-01-11T21:23:01.608Z,25.65
2019-01-11T21:25:30.521Z,26.68
2019-01-11T21:27:59.908Z,16.45
2019-01-11T21:30:30.546Z,18.57
2019-01-11T21:32:59.720Z,17.75
2019-01-11T21:35:29.035Z,17.25
2019-01-11T21:37:58.132Z,24.75
2019-01-11T21:40:27.188Z,25.75
2019-01-11T21:42:56.194Z,25.85
2019-01-11T21:45:25.517Z,24.30
2019-01-11T21:47:54.536Z,16.35
2019-01-11T21:50:25.543Z,22.37
2019-01-11T21:52:54.414Z,23.75
2019-01-11T21:55:23.657Z,17.12
2019-01-11T21:57:52.855Z,18.20
2019-01-11T22:00:24.581Z,22.98
2019-01-11T22:02:53.539Z,19.67
2019-01-11T22:05:22.573Z,13.98
2019-01-11T22:07:51.558Z,20.90
2019-01-11T22:10:20.516Z,26.75
2019-01-11T22:12:49.489Z,21.15
2019-01-11T22:15:19.020Z,18.00
2019-01-11T22:17:48.056Z,25.50
2019-01-11T22:20:17.265Z,16.75
2019-01-11T22:22:46.344Z,16.20
2019-01-11T22:25:15.696Z,15.53
2019-01-11T22:27:44.940Z,18.40
2019-01-11T22:30:19.348Z,15.28
2019-01-11T22:32:48.358Z,22.48
2019-01-11T22:35:18.405Z,26.80
2019-01-11T22:37:50.621Z,22.32
2019-01-11T22:40:21.585Z,17.07
2019-01-11T22:42:52.771Z,23.27
2019-01-11T22:45:22.067Z,24.37
2019-01-11T22:47:50.946Z,24.30
2019-01-11T22:50:20.276Z,25.85
2019-01-11T22:52:49.245Z,27.13
2019-01-11T22:55:18.522Z,18.73
2019-01-11T22:57:47.685Z,21.10
2019-01-11T23:00:45.333Z,21.45
2019-01-11T23:03:20.902Z,19.92
2019-01-11T23:05:51.395Z,17.62
2019-01-11T23:08:21.431Z,24.82
2019-01-11T23:11:15.176Z,20.30
2019-01-11T23:13:44.386Z,10.72
2019-01-11T23:16:33.827Z,19.12
2019-01-11T23:19:02.552Z,22.10
2019-01-11T23:21:31.455Z,25.08
2019-01-11T23:24:00.423Z,22.32
2019-01-11T23:26:29.440Z,17.37
2019-01-11T23:28:58.802Z,23.02
2019-01-11T23:31:27.999Z,15.72
2019-01-11T23:33:57.037Z,19.10
2019-01-11T23:36:26.296Z,23.62
2019-01-11T23:38:55.182Z,14.38
2019-01-11T23:41:24.278Z,24.15
2019-01-11T23:43:53.310Z,24.75
2019-01-11T23:46:22.339Z,24.07
2019-01-11T23:48:51.132Z,24.52
2019-01-11T23:51:20.512Z,24.90
2019-01-11T23:53:50.715Z,24.87
2019-01-11T23:56:19.837Z,26.35
2019-01-11T23:58:48.808Z,21.87
